WON1883 WADS-WADD
Flight info
| Callsign | WON1883 |
|---|---|
| Flight time | 0h 42m |
| Altitude | 22000 |
| Route | MUBOT |
| Aircraft | DH8D/M-SDE2E3FGRY/H |
Departure
| Time | 2026-04-27 14:13 |
|---|---|
| Airport | Sultan Muhammad Kaharuddin III Airport (WADS) |
Arrival
| Time | 2026-04-27 14:55 |
|---|---|
| Airport | Denpasar I Gusti Ngurah Rai International Airport (WADD) |
| Time | Latitude | Longitude | Altitude | Speed | Heading |
|---|---|---|---|---|---|
| 2026-04-27 14:03 | -8.48959 | 117.41451 | 68 ft | 0 kts | 49° |
| 2026-04-27 14:08 | -8.48958 | 117.41451 | 67 ft | 0 kts | 49° |
| 2026-04-27 14:08 | -8.48957 | 117.41453 | 67 ft | 0 kts | 55° |
| 2026-04-27 14:08 | -8.48967 | 117.41469 | 67 ft | 4 kts | 139° |
| 2026-04-27 14:08 | -8.48984 | 117.41483 | 68 ft | 2 kts | 139° |
| 2026-04-27 14:09 | -8.49022 | 117.41515 | 69 ft | 12 kts | 161° |
| 2026-04-27 14:09 | -8.49093 | 117.41478 | 70 ft | 11 kts | 230° |
| 2026-04-27 14:09 | -8.49134 | 117.41436 | 69 ft | 6 kts | 193° |
| 2026-04-27 14:09 | -8.49173 | 117.41456 | 71 ft | 8 kts | 139° |
| 2026-04-27 14:10 | -8.49220 | 117.41496 | 73 ft | 6 kts | 139° |
| 2026-04-27 14:10 | -8.49269 | 117.41536 | 76 ft | 17 kts | 141° |
| 2026-04-27 14:10 | -8.49341 | 117.41605 | 77 ft | 8 kts | 117° |
| 2026-04-27 14:10 | -8.49370 | 117.41647 | 77 ft | 5 kts | 141° |
| 2026-04-27 14:11 | -8.49386 | 117.41637 | 77 ft | 3 kts | 289° |
| 2026-04-27 14:11 | -8.49376 | 117.41625 | 77 ft | 0 kts | 318° |
| 2026-04-27 14:12 | -8.49241 | 117.41512 | 74 ft | 72 kts | 321° |
| 2026-04-27 14:12 | -8.48613 | 117.40990 | 68 ft | 151 kts | 323° |
| 2026-04-27 14:13 | -8.47714 | 117.40290 | 484 ft | 167 kts | 326° |
| 2026-04-27 14:13 | -8.46785 | 117.39529 | 1131 ft | 176 kts | 324° |
| 2026-04-27 14:13 | -8.45734 | 117.38693 | 1463 ft | 207 kts | 322° |
| 2026-04-27 14:13 | -8.44691 | 117.37809 | 2521 ft | 191 kts | 322° |
| 2026-04-27 14:14 | -8.43681 | 117.36957 | 3299 ft | 191 kts | 322° |
| 2026-04-27 14:14 | -8.42682 | 117.36111 | 4075 ft | 189 kts | 322° |
| 2026-04-27 14:14 | -8.41759 | 117.35175 | 4731 ft | 192 kts | 301° |
| 2026-04-27 14:14 | -8.41479 | 117.33884 | 5365 ft | 194 kts | 262° |
| 2026-04-27 14:15 | -8.42015 | 117.32667 | 5988 ft | 192 kts | 231° |
| 2026-04-27 14:15 | -8.42811 | 117.31598 | 6612 ft | 195 kts | 233° |
| 2026-04-27 14:15 | -8.43489 | 117.30419 | 7234 ft | 197 kts | 241° |
| 2026-04-27 14:15 | -8.44131 | 117.29186 | 7829 ft | 199 kts | 240° |
| 2026-04-27 14:16 | -8.44769 | 117.27967 | 8432 ft | 199 kts | 240° |
| 2026-04-27 14:16 | -8.45513 | 117.26771 | 8950 ft | 200 kts | 221° |
| 2026-04-27 14:16 | -8.46728 | 117.26220 | 9413 ft | 194 kts | 186° |
| 2026-04-27 14:16 | -8.48007 | 117.25793 | 9926 ft | 200 kts | 212° |
| 2026-04-27 14:17 | -8.48855 | 117.24670 | 10372 ft | 208 kts | 244° |
| 2026-04-27 14:17 | -8.49412 | 117.23315 | 10871 ft | 210 kts | 245° |
| 2026-04-27 14:17 | -8.49982 | 117.21947 | 11357 ft | 212 kts | 245° |
| 2026-04-27 14:17 | -8.50550 | 117.20578 | 11832 ft | 214 kts | 245° |
| 2026-04-27 14:18 | -8.51125 | 117.19191 | 12303 ft | 216 kts | 245° |
| 2026-04-27 14:18 | -8.51705 | 117.17788 | 12738 ft | 219 kts | 245° |
| 2026-04-27 14:18 | -8.52289 | 117.16372 | 13200 ft | 220 kts | 245° |
| 2026-04-27 14:18 | -8.52887 | 117.14925 | 13610 ft | 223 kts | 245° |
| 2026-04-27 14:19 | -8.53490 | 117.13481 | 14040 ft | 224 kts | 245° |
| 2026-04-27 14:19 | -8.54104 | 117.12034 | 14445 ft | 226 kts | 246° |
| 2026-04-27 14:19 | -8.54733 | 117.10574 | 14846 ft | 228 kts | 245° |
| 2026-04-27 14:19 | -8.55369 | 117.09121 | 15243 ft | 229 kts | 246° |
| 2026-04-27 14:20 | -8.55972 | 117.07623 | 15607 ft | 232 kts | 250° |
| 2026-04-27 14:20 | -8.56512 | 117.06078 | 15984 ft | 234 kts | 252° |
| 2026-04-27 14:20 | -8.57016 | 117.04528 | 16332 ft | 236 kts | 253° |
| 2026-04-27 14:20 | -8.57508 | 117.02934 | 16675 ft | 239 kts | 254° |
| 2026-04-27 14:21 | -8.57990 | 117.01314 | 17037 ft | 240 kts | 255° |
| 2026-04-27 14:21 | -8.58456 | 116.99700 | 17387 ft | 241 kts | 255° |
| 2026-04-27 14:21 | -8.58916 | 116.98071 | 17712 ft | 242 kts | 256° |
| 2026-04-27 14:21 | -8.59375 | 116.96426 | 18036 ft | 244 kts | 256° |
| 2026-04-27 14:22 | -8.59829 | 116.94772 | 18378 ft | 245 kts | 256° |
| 2026-04-27 14:22 | -8.60276 | 116.93134 | 18702 ft | 245 kts | 256° |
| 2026-04-27 14:22 | -8.60731 | 116.91451 | 18989 ft | 248 kts | 256° |
| 2026-04-27 14:22 | -8.61181 | 116.89780 | 19280 ft | 249 kts | 257° |
| 2026-04-27 14:23 | -8.61634 | 116.88093 | 19604 ft | 249 kts | 257° |
| 2026-04-27 14:23 | -8.62092 | 116.86384 | 19865 ft | 251 kts | 257° |
| 2026-04-27 14:23 | -8.62549 | 116.84671 | 20132 ft | 253 kts | 257° |
| 2026-04-27 14:23 | -8.63008 | 116.82950 | 20420 ft | 254 kts | 257° |
| 2026-04-27 14:24 | -8.63465 | 116.81234 | 20675 ft | 256 kts | 257° |
| 2026-04-27 14:24 | -8.63928 | 116.79492 | 20950 ft | 257 kts | 257° |
| 2026-04-27 14:24 | -8.64392 | 116.77747 | 21234 ft | 257 kts | 257° |
| 2026-04-27 14:24 | -8.64851 | 116.76018 | 21478 ft | 258 kts | 257° |
| 2026-04-27 14:25 | -8.65327 | 116.74258 | 21693 ft | 261 kts | 256° |
| 2026-04-27 14:25 | -8.65868 | 116.72485 | 21823 ft | 269 kts | 254° |
| 2026-04-27 14:25 | -8.66450 | 116.70637 | 21875 ft | 280 kts | 254° |
| 2026-04-27 14:25 | -8.67058 | 116.68721 | 21894 ft | 293 kts | 253° |
| 2026-04-27 14:26 | -8.67693 | 116.66725 | 21903 ft | 304 kts | 253° |
| 2026-04-27 14:26 | -8.68350 | 116.64663 | 21907 ft | 315 kts | 253° |
| 2026-04-27 14:26 | -8.69034 | 116.62516 | 21908 ft | 324 kts | 253° |
| 2026-04-27 14:26 | -8.69728 | 116.60340 | 21905 ft | 333 kts | 253° |
| 2026-04-27 14:27 | -8.70448 | 116.58082 | 21905 ft | 339 kts | 253° |
| 2026-04-27 14:27 | -8.71178 | 116.55795 | 21907 ft | 345 kts | 253° |
| 2026-04-27 14:27 | -8.71915 | 116.53484 | 21907 ft | 350 kts | 253° |
| 2026-04-27 14:27 | -8.72672 | 116.51107 | 21908 ft | 354 kts | 253° |
| 2026-04-27 14:28 | -8.73428 | 116.48734 | 21908 ft | 357 kts | 253° |
| 2026-04-27 14:28 | -8.74187 | 116.46349 | 21908 ft | 360 kts | 253° |
| 2026-04-27 14:28 | -8.74966 | 116.43904 | 21882 ft | 362 kts | 253° |
| 2026-04-27 14:28 | -8.75735 | 116.41492 | 21889 ft | 363 kts | 253° |
| 2026-04-27 14:29 | -8.76509 | 116.39064 | 21899 ft | 364 kts | 253° |
| 2026-04-27 14:29 | -8.77290 | 116.36613 | 21907 ft | 365 kts | 253° |
| 2026-04-27 14:29 | -8.78058 | 116.34199 | 21909 ft | 364 kts | 253° |
| 2026-04-27 14:29 | -8.78831 | 116.31773 | 21910 ft | 363 kts | 253° |
| 2026-04-27 14:30 | -8.79604 | 116.29342 | 21910 ft | 363 kts | 253° |
| 2026-04-27 14:30 | -8.80379 | 116.26904 | 21912 ft | 362 kts | 253° |
| 2026-04-27 14:30 | -8.81148 | 116.24484 | 21912 ft | 361 kts | 253° |
| 2026-04-27 14:30 | -8.81907 | 116.22092 | 21911 ft | 361 kts | 253° |
| 2026-04-27 14:31 | -8.82678 | 116.19665 | 21907 ft | 361 kts | 253° |
| 2026-04-27 14:31 | -8.83444 | 116.17251 | 21905 ft | 360 kts | 253° |
| 2026-04-27 14:31 | -8.84205 | 116.14851 | 21903 ft | 360 kts | 253° |
| 2026-04-27 14:31 | -8.84974 | 116.12427 | 21903 ft | 360 kts | 253° |
| 2026-04-27 14:32 | -8.85739 | 116.10014 | 21898 ft | 360 kts | 253° |
| 2026-04-27 14:32 | -8.86494 | 116.07632 | 21896 ft | 360 kts | 253° |
| 2026-04-27 14:32 | -8.87260 | 116.05216 | 21892 ft | 360 kts | 253° |
| 2026-04-27 14:32 | -8.88019 | 116.02821 | 21891 ft | 360 kts | 253° |
| 2026-04-27 14:33 | -8.88781 | 116.00410 | 21890 ft | 359 kts | 253° |
| 2026-04-27 14:33 | -8.89542 | 115.98003 | 21885 ft | 359 kts | 253° |
| 2026-04-27 14:33 | -8.90300 | 115.95609 | 21887 ft | 359 kts | 253° |
| 2026-04-27 14:33 | -8.91063 | 115.93198 | 21886 ft | 359 kts | 253° |
| 2026-04-27 14:34 | -8.91822 | 115.90803 | 21886 ft | 359 kts | 253° |
| 2026-04-27 14:34 | -8.92584 | 115.88396 | 21801 ft | 360 kts | 253° |
| 2026-04-27 14:34 | -8.93351 | 115.85978 | 21367 ft | 360 kts | 253° |
| 2026-04-27 14:34 | -8.94116 | 115.83569 | 20911 ft | 360 kts | 253° |
| 2026-04-27 14:35 | -8.94614 | 115.81125 | 20447 ft | 358 kts | 266° |
| 2026-04-27 14:35 | -8.94752 | 115.78633 | 19998 ft | 356 kts | 269° |
| 2026-04-27 14:35 | -8.94861 | 115.76130 | 19539 ft | 356 kts | 269° |
| 2026-04-27 14:35 | -8.94968 | 115.73645 | 19079 ft | 355 kts | 268° |
| 2026-04-27 14:36 | -8.95077 | 115.71150 | 18616 ft | 354 kts | 268° |
| 2026-04-27 14:36 | -8.95189 | 115.68671 | 18154 ft | 354 kts | 268° |
| 2026-04-27 14:36 | -8.95300 | 115.66216 | 17697 ft | 352 kts | 268° |
| 2026-04-27 14:36 | -8.95375 | 115.63744 | 17232 ft | 351 kts | 271° |
| 2026-04-27 14:37 | -8.95318 | 115.61291 | 16769 ft | 349 kts | 272° |
| 2026-04-27 14:37 | -8.95262 | 115.58852 | 16307 ft | 348 kts | 272° |
| 2026-04-27 14:37 | -8.95217 | 115.56387 | 15836 ft | 347 kts | 271° |
| 2026-04-27 14:37 | -8.95194 | 115.53959 | 15258 ft | 350 kts | 271° |
| 2026-04-27 14:38 | -8.95172 | 115.51521 | 14937 ft | 343 kts | 271° |
| 2026-04-27 14:38 | -8.95149 | 115.49154 | 14684 ft | 335 kts | 271° |
| 2026-04-27 14:38 | -8.95123 | 115.46810 | 14451 ft | 329 kts | 271° |
| 2026-04-27 14:38 | -8.95090 | 115.44476 | 14234 ft | 334 kts | 271° |
| 2026-04-27 14:39 | -8.95051 | 115.42105 | 14003 ft | 339 kts | 271° |
| 2026-04-27 14:39 | -8.95007 | 115.39731 | 13767 ft | 342 kts | 271° |
| 2026-04-27 14:39 | -8.94961 | 115.37322 | 13533 ft | 338 kts | 271° |
| 2026-04-27 14:39 | -8.94913 | 115.34950 | 13302 ft | 336 kts | 271° |
| 2026-04-27 14:40 | -8.94865 | 115.32626 | 13077 ft | 333 kts | 271° |
| 2026-04-27 14:40 | -8.94811 | 115.30281 | 12854 ft | 333 kts | 271° |
| 2026-04-27 14:40 | -8.94757 | 115.27953 | 12666 ft | 332 kts | 271° |
| 2026-04-27 14:40 | -8.94696 | 115.25613 | 12451 ft | 331 kts | 271° |
| 2026-04-27 14:41 | -8.94632 | 115.23283 | 12236 ft | 331 kts | 271° |
| 2026-04-27 14:41 | -8.94566 | 115.20973 | 12016 ft | 331 kts | 271° |
| 2026-04-27 14:41 | -8.94502 | 115.18650 | 11793 ft | 330 kts | 271° |
| 2026-04-27 14:41 | -8.94440 | 115.16319 | 11570 ft | 329 kts | 271° |
| 2026-04-27 14:42 | -8.94379 | 115.14023 | 11345 ft | 329 kts | 271° |
| 2026-04-27 14:42 | -8.94317 | 115.11706 | 11126 ft | 328 kts | 271° |
| 2026-04-27 14:42 | -8.94257 | 115.09427 | 10906 ft | 327 kts | 271° |
| 2026-04-27 14:42 | -8.94200 | 115.07162 | 10671 ft | 311 kts | 271° |
| 2026-04-27 14:43 | -8.94149 | 115.05038 | 10475 ft | 303 kts | 271° |
| 2026-04-27 14:43 | -8.94097 | 115.02912 | 10276 ft | 298 kts | 271° |
| 2026-04-27 14:43 | -8.94044 | 115.00851 | 10087 ft | 296 kts | 271° |
| 2026-04-27 14:43 | -8.93990 | 114.98754 | 9889 ft | 295 kts | 271° |
| 2026-04-27 14:44 | -8.93937 | 114.96697 | 9698 ft | 293 kts | 271° |
| 2026-04-27 14:44 | -8.93883 | 114.94653 | 9504 ft | 294 kts | 271° |
| 2026-04-27 14:44 | -8.93826 | 114.92572 | 9306 ft | 299 kts | 271° |
| 2026-04-27 14:44 | -8.93764 | 114.90467 | 9090 ft | 294 kts | 275° |
| 2026-04-27 14:45 | -8.93187 | 114.88538 | 8663 ft | 285 kts | 297° |
| 2026-04-27 14:45 | -8.92231 | 114.86820 | 8212 ft | 277 kts | 301° |
| 2026-04-27 14:45 | -8.91277 | 114.85171 | 7837 ft | 268 kts | 301° |
| 2026-04-27 14:45 | -8.90308 | 114.83587 | 7459 ft | 259 kts | 309° |
| 2026-04-27 14:46 | -8.88918 | 114.82470 | 7087 ft | 254 kts | 338° |
| 2026-04-27 14:46 | -8.87246 | 114.81997 | 6744 ft | 249 kts | 350° |
| 2026-04-27 14:46 | -8.85554 | 114.81657 | 6391 ft | 248 kts | 351° |
| 2026-04-27 14:46 | -8.83857 | 114.81309 | 6032 ft | 246 kts | 350° |
| 2026-04-27 14:47 | -8.82193 | 114.81197 | 5646 ft | 234 kts | 15° |
| 2026-04-27 14:47 | -8.80861 | 114.82014 | 5274 ft | 219 kts | 50° |
| 2026-04-27 14:47 | -8.79853 | 114.83115 | 4919 ft | 213 kts | 41° |
| 2026-04-27 14:47 | -8.78605 | 114.83900 | 4551 ft | 207 kts | 28° |
| 2026-04-27 14:48 | -8.77349 | 114.84578 | 4186 ft | 201 kts | 31° |
| 2026-04-27 14:48 | -8.75873 | 114.86674 | 3511 ft | 195 kts | 88° |
| 2026-04-27 14:48 | -8.75854 | 114.88018 | 3426 ft | 193 kts | 89° |
| 2026-04-27 14:49 | -8.75834 | 114.89368 | 3351 ft | 190 kts | 89° |
| 2026-04-27 14:49 | -8.75808 | 114.90685 | 3282 ft | 184 kts | 89° |
| 2026-04-27 14:49 | -8.75775 | 114.91962 | 3260 ft | 180 kts | 89° |
| 2026-04-27 14:49 | -8.75741 | 114.93269 | 3276 ft | 190 kts | 89° |
| 2026-04-27 14:50 | -8.75701 | 114.94626 | 3299 ft | 199 kts | 88° |
| 2026-04-27 14:50 | -8.75653 | 114.96059 | 3316 ft | 208 kts | 88° |
| 2026-04-27 14:50 | -8.75598 | 114.97546 | 3305 ft | 213 kts | 88° |
| 2026-04-27 14:50 | -8.75535 | 114.99017 | 3011 ft | 204 kts | 87° |
| 2026-04-27 14:51 | -8.75474 | 115.00433 | 2745 ft | 197 kts | 87° |
| 2026-04-27 14:51 | -8.75420 | 115.01759 | 2513 ft | 184 kts | 88° |
| 2026-04-27 14:51 | -8.75369 | 115.03030 | 2271 ft | 174 kts | 87° |
| 2026-04-27 14:51 | -8.75324 | 115.04224 | 2060 ft | 173 kts | 88° |
| 2026-04-27 14:52 | -8.75280 | 115.05428 | 1830 ft | 166 kts | 88° |
| 2026-04-27 14:52 | -8.75235 | 115.06523 | 1598 ft | 145 kts | 88° |
| 2026-04-27 14:52 | -8.75201 | 115.07540 | 1496 ft | 146 kts | 89° |
| 2026-04-27 14:52 | -8.75169 | 115.08571 | 1296 ft | 143 kts | 88° |
| 2026-04-27 14:53 | -8.75130 | 115.09538 | 1094 ft | 134 kts | 89° |
| 2026-04-27 14:53 | -8.75098 | 115.10471 | 917 ft | 133 kts | 89° |
| 2026-04-27 14:53 | -8.75066 | 115.11402 | 746 ft | 131 kts | 89° |
| 2026-04-27 14:53 | -8.75034 | 115.12321 | 575 ft | 130 kts | 89° |
| 2026-04-27 14:54 | -8.75001 | 115.13229 | 408 ft | 128 kts | 89° |
| 2026-04-27 14:54 | -8.74956 | 115.14115 | 229 ft | 127 kts | 86° |
| 2026-04-27 14:54 | -8.74906 | 115.15006 | 105 ft | 128 kts | 89° |
| 2026-04-27 14:54 | -8.74878 | 115.15897 | 19 ft | 122 kts | 88° |
| 2026-04-27 14:55 | -8.74851 | 115.16567 | 21 ft | 54 kts | 86° |
| 2026-04-27 14:55 | -8.74837 | 115.16707 | 20 ft | 13 kts | 70° |
| 2026-04-27 14:55 | -8.74798 | 115.16781 | 19 ft | 10 kts | 62° |
| 2026-04-27 14:55 | -8.74767 | 115.16839 | 19 ft | 7 kts | 52° |
| 2026-04-27 14:56 | -8.74725 | 115.16857 | 19 ft | 5 kts | 0° |
| 2026-04-27 14:56 | -8.74688 | 115.16840 | 20 ft | 6 kts | 310° |
| 2026-04-27 14:56 | -8.74677 | 115.16782 | 21 ft | 10 kts | 268° |
| 2026-04-27 14:56 | -8.74680 | 115.16710 | 22 ft | 9 kts | 267° |
| 2026-04-27 14:57 | -8.74683 | 115.16647 | 23 ft | 8 kts | 268° |
| 2026-04-27 14:57 | -8.74686 | 115.16580 | 24 ft | 9 kts | 268° |
| 2026-04-27 14:57 | -8.74688 | 115.16517 | 24 ft | 8 kts | 268° |
| 2026-04-27 14:57 | -8.74690 | 115.16457 | 25 ft | 8 kts | 267° |
| 2026-04-27 14:58 | -8.74693 | 115.16402 | 26 ft | 7 kts | 268° |
| 2026-04-27 14:58 | -8.74695 | 115.16346 | 26 ft | 8 kts | 268° |
| 2026-04-27 14:58 | -8.74697 | 115.16288 | 26 ft | 8 kts | 268° |
| 2026-04-27 14:58 | -8.74699 | 115.16224 | 25 ft | 9 kts | 268° |
| 2026-04-27 14:59 | -8.74699 | 115.16189 | 24 ft | 4 kts | 287° |
| 2026-04-27 14:59 | -8.74672 | 115.16180 | 24 ft | 4 kts | 356° |
| 2026-04-27 14:59 | -8.74643 | 115.16177 | 25 ft | 4 kts | 357° |
| 2026-04-27 14:59 | -8.74629 | 115.16177 | 25 ft | 0 kts | 357° |